createdAt,value
2023-04-19T00:02:23.818Z,12.87
2023-04-19T00:04:53.169Z,11.97
2023-04-19T00:07:21.203Z,12.63
2023-04-19T00:09:48.702Z,12.80
2023-04-19T00:12:16.186Z,12.32
2023-04-19T00:14:43.745Z,12.80
2023-04-19T00:17:12.251Z,12.03
2023-04-19T00:19:39.801Z,12.73
2023-04-19T00:22:08.609Z,12.70
2023-04-19T00:24:36.224Z,12.30
2023-04-19T00:27:03.753Z,12.67
2023-04-19T00:29:31.835Z,13.20
2023-04-19T00:31:59.326Z,12.20
2023-04-19T00:34:26.816Z,12.38
2023-04-19T00:36:54.294Z,13.20
2023-04-19T00:39:23.126Z,13.15
2023-04-19T00:41:50.612Z,12.17
2023-04-19T00:44:18.077Z,11.30
2023-04-19T00:46:46.512Z,12.77
2023-04-19T00:49:14.026Z,12.23
2023-04-19T00:51:41.623Z,11.83
2023-04-19T00:54:09.558Z,11.80
2023-04-19T00:56:38.992Z,11.97
2023-04-19T00:59:06.654Z,11.30
2023-04-19T01:01:35.114Z,11.80
2023-04-19T01:04:03.500Z,12.52
2023-04-19T01:06:31.740Z,12.23
2023-04-19T01:08:59.231Z,12.13
2023-04-19T01:11:27.348Z,12.43
2023-04-19T01:13:56.716Z,11.77
2023-04-19T01:16:24.526Z,12.50
2023-04-19T01:18:52.095Z,12.60
2023-04-19T01:21:19.618Z,12.93
2023-04-19T01:23:48.398Z,12.23
2023-04-19T01:26:16.184Z,12.07
2023-04-19T01:28:43.638Z,12.90
2023-04-19T01:31:11.190Z,12.23
2023-04-19T01:33:38.878Z,12.47
2023-04-19T01:36:07.161Z,12.40
2023-04-19T01:38:35.055Z,13.20
2023-04-19T01:41:03.920Z,11.57
2023-04-19T01:43:31.430Z,12.17
2023-04-19T01:45:58.920Z,12.50
2023-04-19T01:48:26.716Z,11.83
2023-04-19T01:50:54.226Z,13.03
2023-04-19T01:53:21.723Z,13.97
2023-04-19T01:55:49.192Z,14.03
2023-04-19T01:58:18.043Z,14.73
2023-04-19T02:00:46.126Z,13.10
2023-04-19T02:03:13.915Z,9.60
2023-04-19T02:05:41.970Z,14.47
2023-04-19T02:08:09.448Z,14.57
2023-04-19T02:10:36.941Z,12.73
2023-04-19T02:13:04.450Z,13.93
2023-04-19T02:15:33.259Z,14.03
2023-04-19T02:18:01.228Z,13.03
2023-04-19T02:20:28.729Z,13.07
2023-04-19T02:22:56.353Z,14.97
2023-04-19T02:25:23.841Z,14.90
2023-04-19T02:27:51.400Z,14.18
2023-04-19T02:30:19.350Z,14.67
2023-04-19T02:32:49.931Z,15.77
2023-04-19T02:35:17.608Z,14.47
2023-04-19T02:37:45.590Z,15.47
2023-04-19T02:40:13.084Z,15.83
2023-04-19T02:42:40.618Z,15.40
2023-04-19T02:45:09.689Z,14.13
2023-04-19T02:47:37.274Z,14.63
2023-04-19T02:50:07.501Z,13.70
2023-04-19T02:52:35.006Z,13.63
2023-04-19T02:55:02.572Z,14.70
2023-04-19T02:57:30.038Z,16.37
2023-04-19T02:59:57.730Z,14.70
2023-04-19T03:02:25.494Z,14.30
2023-04-19T03:04:53.188Z,13.23
2023-04-19T03:07:22.075Z,15.50
2023-04-19T03:09:49.539Z,16.43
2023-04-19T03:12:17.006Z,15.53
2023-04-19T03:14:44.544Z,16.07
2023-04-19T03:17:11.999Z,16.00
2023-04-19T03:19:39.966Z,16.13
2023-04-19T03:22:07.472Z,15.90
2023-04-19T03:24:37.954Z,17.83
2023-04-19T03:27:05.780Z,16.47
2023-04-19T03:29:33.283Z,16.67
2023-04-19T03:32:00.769Z,17.37
2023-04-19T03:34:28.254Z,18.27
2023-04-19T03:36:55.748Z,17.67
2023-04-19T03:39:23.207Z,16.70
2023-04-19T03:41:52.015Z,16.97
2023-04-19T03:44:19.506Z,19.23
2023-04-19T03:46:48.687Z,17.57
2023-04-19T03:49:16.242Z,17.83
2023-04-19T03:51:43.757Z,17.87
2023-04-19T03:54:11.251Z,19.80
2023-04-19T03:56:38.733Z,19.13
2023-04-19T03:59:07.531Z,18.83
2023-04-19T04:01:35.007Z,19.23
2023-04-19T04:04:04.795Z,19.23
2023-04-19T04:06:32.642Z,19.37
2023-04-19T04:09:00.394Z,18.93
2023-04-19T04:11:28.011Z,18.83
2023-04-19T04:13:56.606Z,18.30
2023-04-19T04:16:25.584Z,20.17
2023-04-19T04:18:53.124Z,19.43
2023-04-19T04:21:21.125Z,19.17
2023-04-19T04:23:49.762Z,19.93
2023-04-19T04:26:17.286Z,18.43
2023-04-19T04:28:44.770Z,18.17
2023-04-19T04:31:13.132Z,19.13
2023-04-19T04:33:42.245Z,18.53
2023-04-19T04:36:11.926Z,18.57
2023-04-19T04:38:39.409Z,19.10
2023-04-19T04:41:07.085Z,18.20
2023-04-19T04:43:34.990Z,18.07
2023-04-19T04:46:02.464Z,20.30
2023-04-19T04:48:31.301Z,17.80
2023-04-19T04:51:00.236Z,16.23
2023-04-19T04:53:27.783Z,16.17
2023-04-19T04:55:55.543Z,19.23
2023-04-19T04:58:23.035Z,17.47
2023-04-19T05:00:50.562Z,16.30
2023-04-19T05:03:18.109Z,13.60
2023-04-19T05:05:45.594Z,16.07
2023-04-19T05:08:14.422Z,16.07
2023-04-19T05:10:41.965Z,16.13
2023-04-19T05:13:09.449Z,14.43
2023-04-19T05:15:36.929Z,15.77
2023-04-19T05:18:04.603Z,14.80
2023-04-19T05:20:33.854Z,17.70
2023-04-19T05:23:03.360Z,15.33
2023-04-19T05:25:32.250Z,15.40
2023-04-19T05:27:59.713Z,15.33
2023-04-19T05:30:27.171Z,14.93
2023-04-19T05:32:54.695Z,14.53
2023-04-19T05:35:22.455Z,13.93
2023-04-19T05:37:50.035Z,11.77
2023-04-19T05:40:17.690Z,14.13
2023-04-19T05:42:46.453Z,15.03
2023-04-19T05:45:15.567Z,13.00
2023-04-19T05:47:43.337Z,11.33
2023-04-19T05:50:11.558Z,14.13
2023-04-19T05:52:39.032Z,11.83
2023-04-19T05:55:06.836Z,12.90
2023-04-19T05:57:34.334Z,13.00
2023-04-19T06:00:03.292Z,12.02
2023-04-19T06:02:31.022Z,11.37
2023-04-19T06:05:02.507Z,12.43
2023-04-19T06:07:34.407Z,12.53
2023-04-19T06:10:08.539Z,13.20
2023-04-19T06:12:36.055Z,13.20
2023-04-19T06:15:05.884Z,12.75
2023-04-19T06:17:33.381Z,12.37
2023-04-19T06:20:00.944Z,13.70
2023-04-19T06:22:28.390Z,10.00
2023-04-19T06:24:55.832Z,9.63
2023-04-19T06:27:23.275Z,12.02
2023-04-19T06:29:51.366Z,9.47
2023-04-19T06:32:20.290Z,11.80
2023-04-19T06:34:47.768Z,12.70
2023-04-19T06:37:15.230Z,9.27
2023-04-19T06:39:42.699Z,10.70
2023-04-19T06:42:10.385Z,11.00
2023-04-19T06:44:37.839Z,12.50
2023-04-19T06:47:05.952Z,10.03
2023-04-19T06:49:34.921Z,11.30
2023-04-19T06:52:02.385Z,9.70
2023-04-19T06:54:29.862Z,11.48
2023-04-19T06:56:57.652Z,12.07
2023-04-19T06:59:28.124Z,11.37
2023-04-19T07:01:56.723Z,12.37
2023-04-19T07:04:24.504Z,12.37
2023-04-19T07:06:53.673Z,11.70
2023-04-19T07:09:21.134Z,12.37
2023-04-19T07:11:48.651Z,10.43
2023-04-19T07:14:16.696Z,9.23
2023-04-19T07:16:44.334Z,11.10
2023-04-19T07:19:11.803Z,10.10
2023-04-19T07:21:39.676Z,9.40
2023-04-19T07:24:08.890Z,10.83
2023-04-19T07:26:36.334Z,9.33
2023-04-19T07:29:04.166Z,11.10
2023-04-19T07:31:31.959Z,12.87
2023-04-19T07:33:59.706Z,11.47
2023-04-19T07:36:27.694Z,12.17
2023-04-19T07:38:55.249Z,13.20
2023-04-19T07:41:24.142Z,13.77
2023-04-19T07:43:51.601Z,13.40
2023-04-19T07:46:19.112Z,13.30
2023-04-19T07:48:46.644Z,13.53
2023-04-19T07:51:16.302Z,14.47
2023-04-19T07:53:44.721Z,14.63
2023-04-19T07:56:13.175Z,14.67
2023-04-19T07:58:42.381Z,15.27
2023-04-19T08:01:11.470Z,15.87
2023-04-19T08:03:39.169Z,15.93
2023-04-19T08:06:08.292Z,14.97
2023-04-19T08:08:36.272Z,22.30
2023-04-19T08:11:04.134Z,14.67
2023-04-19T08:13:31.967Z,16.47
2023-04-19T08:18:31.957Z,16.03
2023-04-19T08:20:59.523Z,16.90
2023-04-19T08:23:32.050Z,14.87
2023-04-19T08:26:09.033Z,16.77
2023-04-19T08:28:36.553Z,14.47
2023-04-19T08:31:08.226Z,17.07
2023-04-19T08:33:35.720Z,14.90
2023-04-19T08:36:03.321Z,16.30
2023-04-19T08:38:30.765Z,16.07
2023-04-19T08:40:58.248Z,16.13
2023-04-19T08:43:28.721Z,13.87
2023-04-19T08:45:57.596Z,15.33
2023-04-19T08:48:28.244Z,17.65
2023-04-19T08:51:04.907Z,14.97
2023-04-19T08:53:34.845Z,15.48
2023-04-19T09:01:05.731Z,13.70
2023-04-19T09:03:41.253Z,13.83
2023-04-19T09:06:19.109Z,16.37
2023-04-19T09:08:46.843Z,15.13
2023-04-19T09:11:14.372Z,15.63
2023-04-19T09:13:44.417Z,17.30
2023-04-19T09:16:26.008Z,15.63
2023-04-19T09:19:11.437Z,16.23
2023-04-19T09:21:47.379Z,13.20
2023-04-19T09:24:14.871Z,16.47
2023-04-19T09:26:54.831Z,14.67
2023-04-19T09:29:22.547Z,14.82
2023-04-19T09:31:58.265Z,12.15
2023-04-19T09:34:28.709Z,10.70
2023-04-19T09:37:04.698Z,13.13
2023-04-19T09:39:39.286Z,13.13
2023-04-19T09:42:07.063Z,14.17
2023-04-19T09:45:05.929Z,12.52
2023-04-19T09:47:24.765Z,12.20
2023-04-19T09:50:21.053Z,13.40
2023-04-19T09:52:49.661Z,14.17
2023-04-19T09:55:27.085Z,11.60
2023-04-19T09:57:55.733Z,16.80
2023-04-19T10:00:23.981Z,14.60
2023-04-19T10:02:57.704Z,15.20
2023-04-19T10:05:27.577Z,12.40
2023-04-19T10:08:00.106Z,11.33
2023-04-19T10:10:41.298Z,12.97
2023-04-19T10:13:19.743Z,15.17
2023-04-19T10:15:54.027Z,16.37
2023-04-19T10:18:23.858Z,17.27
2023-04-19T10:20:57.431Z,18.80
2023-04-19T10:23:25.864Z,20.53
2023-04-19T10:25:58.235Z,22.83
2023-04-19T10:28:26.223Z,20.77
2023-04-19T10:30:55.615Z,15.13
2023-04-19T10:33:27.229Z,17.30
2023-04-19T10:35:58.681Z,22.30
2023-04-19T10:38:41.409Z,17.80
2023-04-19T10:41:16.970Z,22.20
2023-04-19T10:43:47.383Z,20.97
2023-04-19T10:46:17.346Z,21.77
2023-04-19T10:48:55.473Z,21.33
2023-04-19T10:51:28.312Z,22.20
2023-04-19T10:54:00.425Z,19.30
2023-04-19T10:57:00.707Z,15.93
2023-04-19T10:59:30.064Z,16.00
2023-04-19T11:01:58.723Z,14.47
2023-04-19T11:05:09.714Z,13.73
2023-04-19T11:07:42.801Z,15.77
2023-04-19T11:10:11.468Z,16.67
2023-04-19T11:12:43.601Z,12.37
2023-04-19T11:15:11.851Z,11.57
2023-04-19T11:17:39.636Z,10.38
2023-04-19T11:20:10.176Z,9.70
2023-04-19T11:22:39.495Z,8.23
2023-04-19T11:25:10.066Z,8.13
2023-04-19T11:27:38.322Z,11.23
2023-04-19T11:30:07.386Z,8.43
2023-04-19T11:32:35.399Z,9.00
2023-04-19T11:35:08.156Z,8.20
2023-04-19T11:37:36.625Z,7.18
2023-04-19T11:40:06.358Z,6.70
2023-04-19T11:42:35.807Z,5.60
2023-04-19T11:45:03.976Z,7.75
2023-04-19T11:47:31.778Z,8.50
2023-04-19T11:50:31.947Z,8.80
2023-04-19T11:52:59.516Z,8.43
2023-04-19T11:55:27.158Z,7.43
2023-04-19T11:57:56.447Z,7.35
2023-04-19T12:00:29.087Z,7.22
2023-04-19T12:02:56.824Z,7.38
2023-04-19T12:05:24.734Z,8.50
2023-04-19T12:08:03.580Z,7.40
2023-04-19T12:10:31.758Z,7.75
2023-04-19T12:13:00.889Z,6.95
2023-04-19T12:15:42.814Z,6.28
2023-04-19T12:18:10.491Z,5.30
2023-04-19T12:20:44.340Z,6.93
2023-04-19T12:23:13.920Z,5.78
2023-04-19T12:25:41.601Z,5.38
2023-04-19T12:28:10.393Z,5.55
2023-04-19T12:30:37.914Z,3.70
2023-04-19T12:33:05.896Z,4.20
2023-04-19T12:35:33.972Z,3.53
2023-04-19T12:38:01.434Z,3.70
2023-04-19T12:40:28.966Z,4.10
2023-04-19T12:42:56.428Z,3.47
2023-04-19T12:45:25.245Z,3.90
2023-04-19T12:47:52.846Z,3.53
2023-04-19T12:50:20.407Z,2.72
2023-04-19T12:52:47.883Z,3.35
2023-04-19T12:55:15.489Z,3.58
2023-04-19T12:57:43.432Z,3.28
2023-04-19T13:00:12.422Z,3.05
2023-04-19T13:02:41.290Z,3.58
2023-04-19T13:05:09.584Z,3.03
2023-04-19T13:07:37.021Z,2.88
2023-04-19T13:10:04.828Z,2.72
2023-04-19T13:12:32.394Z,2.80
2023-04-19T13:15:01.387Z,2.53
2023-04-19T13:17:30.333Z,2.60
2023-04-19T13:19:59.113Z,2.65
2023-04-19T13:22:27.506Z,2.60
2023-04-19T13:24:54.963Z,2.95
2023-04-19T13:27:22.424Z,2.90
2023-04-19T13:29:49.895Z,2.92
2023-04-19T13:32:17.375Z,4.35
2023-04-19T13:34:44.813Z,2.75
2023-04-19T13:37:13.676Z,2.42
2023-04-19T13:39:41.124Z,2.75
2023-04-19T13:42:08.574Z,2.80
2023-04-19T13:44:36.466Z,3.22
2023-04-19T13:47:04.147Z,2.70
2023-04-19T13:49:31.778Z,2.17
2023-04-19T13:51:59.257Z,2.25
2023-04-19T13:54:28.334Z,1.95
2023-04-19T13:56:56.166Z,2.17
2023-04-19T13:59:25.943Z,1.77
2023-04-19T14:01:55.806Z,2.40
2023-04-19T14:04:23.883Z,2.80
2023-04-19T14:06:52.092Z,3.13
2023-04-19T14:09:19.532Z,2.20
2023-04-19T14:11:49.259Z,2.42
2023-04-19T14:14:16.966Z,2.17
2023-04-19T14:16:45.102Z,2.45
2023-04-19T14:19:12.576Z,2.28
2023-04-19T14:21:40.066Z,3.17
2023-04-19T14:24:07.760Z,1.95
2023-04-19T14:26:35.231Z,2.20
2023-04-19T14:29:04.021Z,1.90
2023-04-19T14:31:31.559Z,2.40
2023-04-19T14:33:59.747Z,2.13
2023-04-19T14:36:27.751Z,2.10
2023-04-19T14:38:55.201Z,1.67
2023-04-19T14:41:22.799Z,2.20
2023-04-19T14:43:50.496Z,3.42
2023-04-19T14:46:19.409Z,2.42
2023-04-19T14:48:46.874Z,2.58
2023-04-19T14:51:14.305Z,3.13
2023-04-19T14:53:41.757Z,3.95
2023-04-19T14:56:09.619Z,4.75
2023-04-19T14:58:37.062Z,4.20
2023-04-19T15:01:12.181Z,4.15
2023-04-19T15:03:41.311Z,3.67
2023-04-19T15:06:09.200Z,3.92
2023-04-19T15:08:36.654Z,4.30
2023-04-19T15:11:04.132Z,3.83
2023-04-19T15:13:32.025Z,4.00
2023-04-19T15:16:01.828Z,4.20
2023-04-19T15:18:30.691Z,3.42
2023-04-19T15:20:59.500Z,2.88
2023-04-19T15:23:27.117Z,3.25
2023-04-19T15:25:54.612Z,3.22
2023-04-19T15:28:22.135Z,2.50
2023-04-19T15:30:58.381Z,2.20
2023-04-19T15:33:26.353Z,2.50
2023-04-19T15:35:54.287Z,2.30
2023-04-19T15:38:24.692Z,2.35
2023-04-19T15:40:52.514Z,2.75
2023-04-19T15:43:19.977Z,2.33
2023-04-19T15:45:47.492Z,1.98
2023-04-19T15:48:15.003Z,2.42
2023-04-19T15:50:44.095Z,2.30
2023-04-19T15:53:11.823Z,2.03
2023-04-19T15:55:41.339Z,2.35
2023-04-19T15:58:08.823Z,2.10
2023-04-19T16:00:36.402Z,2.45
2023-04-19T16:03:04.048Z,2.30
2023-04-19T16:05:31.809Z,2.50
2023-04-19T16:08:03.522Z,2.30
2023-04-19T16:10:31.325Z,2.78
2023-04-19T16:13:00.515Z,2.20
2023-04-19T16:15:28.835Z,2.40
2023-04-19T16:17:56.379Z,2.53
2023-04-19T16:20:23.957Z,2.10
2023-04-19T16:22:51.405Z,2.63
2023-04-19T16:25:18.918Z,2.28
2023-04-19T16:27:47.686Z,2.15
2023-04-19T16:30:17.289Z,2.17
2023-04-19T16:32:44.831Z,1.95
2023-04-19T16:35:12.347Z,1.92
2023-04-19T16:37:39.788Z,2.10
2023-04-19T16:40:10.179Z,2.20
2023-04-19T16:42:38.992Z,2.10
2023-04-19T16:45:08.713Z,2.60
2023-04-19T16:47:37.591Z,2.75
2023-04-19T16:50:06.414Z,2.30
2023-04-19T16:52:35.363Z,2.05
2023-04-19T16:55:03.804Z,2.10
2023-04-19T16:57:32.157Z,2.40
2023-04-19T17:00:00.955Z,2.28
2023-04-19T17:02:28.650Z,2.20
2023-04-19T17:04:58.191Z,2.40
2023-04-19T17:07:25.856Z,2.20
2023-04-19T17:09:54.156Z,2.42
2023-04-19T17:12:21.611Z,2.22
2023-04-19T17:14:49.095Z,2.55
2023-04-19T17:17:18.096Z,2.63
2023-04-19T17:19:45.582Z,2.75
2023-04-19T17:22:14.912Z,2.20
2023-04-19T17:24:43.109Z,2.15
2023-04-19T17:27:10.979Z,2.30
2023-04-19T17:29:38.503Z,2.25
2023-04-19T17:32:07.310Z,2.50
2023-04-19T17:34:36.690Z,2.75
2023-04-19T17:37:04.551Z,2.40
2023-04-19T17:39:33.338Z,2.67
2023-04-19T17:42:01.642Z,2.53
2023-04-19T17:44:29.124Z,2.40
2023-04-19T17:46:58.033Z,2.60
2023-04-19T17:49:26.994Z,2.67
2023-04-19T17:51:55.768Z,2.60
2023-04-19T17:54:23.224Z,2.53
2023-04-19T17:56:52.896Z,2.92
2023-04-19T17:59:20.412Z,2.85
2023-04-19T18:01:47.889Z,2.22
2023-04-19T18:04:17.816Z,2.13
2023-04-19T18:06:45.689Z,2.37
2023-04-19T18:09:13.245Z,1.97
2023-04-19T18:11:41.017Z,2.23
2023-04-19T18:14:09.881Z,2.60
2023-04-19T18:16:37.590Z,3.00
2023-04-19T18:19:05.172Z,2.60
2023-04-19T18:21:33.079Z,2.70
2023-04-19T18:24:00.558Z,2.80
2023-04-19T18:26:37.329Z,2.73
2023-04-19T18:29:04.822Z,2.90
2023-04-19T18:31:33.747Z,3.13
2023-04-19T18:34:01.281Z,2.70
2023-04-19T18:36:29.055Z,2.60
2023-04-19T18:38:56.663Z,2.70
2023-04-19T18:41:24.646Z,2.70
2023-04-19T18:46:27.337Z,2.97
2023-04-19T18:48:56.371Z,3.37
2023-04-19T18:51:23.825Z,3.10
2023-04-19T18:53:51.825Z,2.87
2023-04-19T18:56:19.356Z,3.33
2023-04-19T18:58:48.179Z,3.37
2023-04-19T19:01:15.845Z,3.30
2023-04-19T19:06:15.591Z,3.40
2023-04-19T19:08:43.438Z,3.10
2023-04-19T19:11:36.060Z,3.30
2023-04-19T19:13:58.440Z,3.13
2023-04-19T19:16:26.482Z,2.90
2023-04-19T19:18:55.770Z,3.13
2023-04-19T19:21:24.546Z,3.43
2023-04-19T19:23:53.658Z,3.47
2023-04-19T19:26:21.262Z,3.27
2023-04-19T19:28:48.802Z,2.87
2023-04-19T19:31:16.303Z,3.00
2023-04-19T19:33:50.129Z,3.00
2023-04-19T19:36:21.066Z,3.17
2023-04-19T19:38:49.858Z,3.57
2023-04-19T19:43:47.646Z,2.90
2023-04-19T19:46:15.438Z,3.80
2023-04-19T19:48:43.044Z,3.20
2023-04-19T19:51:36.446Z,3.50
2023-04-19T19:53:59.697Z,3.53
2023-04-19T19:56:27.915Z,3.90
2023-04-19T19:58:57.484Z,4.10
2023-04-19T20:01:26.972Z,3.20
2023-04-19T20:03:55.661Z,3.40
2023-04-19T20:08:56.016Z,4.13
2023-04-19T20:11:25.517Z,4.30
2023-04-19T20:13:53.022Z,4.00
2023-04-19T20:16:20.943Z,4.07
2023-04-19T20:18:49.670Z,4.00
2023-04-19T20:21:17.853Z,4.30
2023-04-19T20:23:45.338Z,3.87
2023-04-19T20:26:12.813Z,4.30
2023-04-19T20:28:41.644Z,4.03
2023-04-19T20:31:09.216Z,4.53
2023-04-19T20:33:36.701Z,4.00
2023-04-19T20:36:04.420Z,4.60
2023-04-19T20:38:34.432Z,4.20
2023-04-19T20:41:01.940Z,4.37
2023-04-19T20:43:29.427Z,4.07
2023-04-19T20:45:58.300Z,3.77
2023-04-19T20:48:25.798Z,5.80
2023-04-19T20:50:53.256Z,4.93
2023-04-19T20:53:20.747Z,4.30
2023-04-19T20:55:48.202Z,4.80
2023-04-19T20:58:16.064Z,4.77
2023-04-19T21:00:44.060Z,4.53
2023-04-19T21:03:12.952Z,4.17
2023-04-19T21:05:41.441Z,4.60
2023-04-19T21:08:08.959Z,4.87
2023-04-19T21:10:36.443Z,4.30
2023-04-19T21:13:03.928Z,4.13
2023-04-19T21:15:31.439Z,4.57
2023-04-19T21:17:59.046Z,4.33
2023-04-19T21:20:28.173Z,4.30
2023-04-19T21:22:55.622Z,5.07
2023-04-19T21:25:23.236Z,4.90
2023-04-19T21:27:50.687Z,4.93
2023-04-19T21:30:18.196Z,5.37
2023-04-19T21:32:45.661Z,5.30
2023-04-19T21:35:13.196Z,4.83
2023-04-19T21:37:41.993Z,5.57
2023-04-19T21:40:10.034Z,5.50
2023-04-19T21:42:37.569Z,5.40
2023-04-19T21:45:05.860Z,5.40
2023-04-19T21:47:33.365Z,5.50
2023-04-19T21:50:00.859Z,5.30
2023-04-19T21:52:28.306Z,5.40
2023-04-19T21:54:57.192Z,4.77
2023-04-19T21:57:26.821Z,5.83
2023-04-19T21:59:54.481Z,5.13
2023-04-19T22:02:22.147Z,5.60
2023-04-19T22:04:49.862Z,5.57
2023-04-19T22:07:19.275Z,6.23
2023-04-19T22:09:46.883Z,5.60
2023-04-19T22:12:15.706Z,5.83
2023-04-19T22:14:43.163Z,5.87
2023-04-19T22:17:10.617Z,6.23
2023-04-19T22:19:39.355Z,6.40
2023-04-19T22:22:06.816Z,6.10
2023-04-19T22:24:37.360Z,6.60
2023-04-19T22:27:08.841Z,5.87
2023-04-19T22:29:38.268Z,6.00
2023-04-19T22:32:06.156Z,6.13
2023-04-19T22:34:33.646Z,6.07
2023-04-19T22:37:01.114Z,6.30
2023-04-19T22:39:28.580Z,6.67
2023-04-19T22:41:56.364Z,6.90
2023-04-19T22:44:23.826Z,6.10
2023-04-19T22:46:52.657Z,6.70
2023-04-19T22:49:22.025Z,6.63
2023-04-19T22:51:49.778Z,7.10
2023-04-19T22:54:17.327Z,7.27
2023-04-19T22:56:44.809Z,7.20
2023-04-19T22:59:13.395Z,7.07
2023-04-19T23:01:40.945Z,6.53
2023-04-19T23:04:12.518Z,6.93
2023-04-19T23:06:40.231Z,6.33
2023-04-19T23:09:10.796Z,6.57
2023-04-19T23:11:39.320Z,6.63
2023-04-19T23:14:08.746Z,6.53
2023-04-19T23:16:38.394Z,6.60
2023-04-19T23:19:06.272Z,7.30
2023-04-19T23:21:35.991Z,6.10
2023-04-19T23:24:03.466Z,6.73
2023-04-19T23:26:30.979Z,7.57
2023-04-19T23:28:58.491Z,6.53
2023-04-19T23:31:25.991Z,6.67
2023-04-19T23:33:53.494Z,6.60
2023-04-19T23:36:21.021Z,6.43
2023-04-19T23:38:49.859Z,7.00
2023-04-19T23:41:17.360Z,6.33
2023-04-19T23:43:46.319Z,6.80
2023-04-19T23:46:13.884Z,7.17
2023-04-19T23:48:41.372Z,7.13
2023-04-19T23:51:08.832Z,6.37
2023-04-19T23:53:36.320Z,7.17
2023-04-19T23:56:05.793Z,6.97
2023-04-19T23:58:33.264Z,8.13
